createdAt,value
2023-03-26T00:00:22.825Z,248.18
2023-03-26T03:04:39.633Z,28.59
2023-03-26T03:12:39.566Z,28.71
2023-03-26T03:20:39.570Z,27.78
2023-03-26T03:28:39.468Z,25.18
2023-03-26T03:36:39.420Z,26.72
2023-03-26T03:44:39.543Z,26.50
2023-03-26T03:52:39.712Z,28.51
2023-03-26T04:00:39.547Z,27.62
2023-03-26T04:08:39.439Z,27.14
2023-03-26T04:16:39.319Z,27.19
2023-03-26T04:24:39.386Z,26.11
2023-03-26T04:32:39.291Z,28.26
2023-03-26T04:36:40.193Z,26.99
2023-03-26T04:40:40.165Z,28.59
2023-03-26T04:44:40.071Z,25.89
2023-03-26T04:48:40.032Z,28.11
2023-03-26T04:52:40.075Z,26.85
2023-03-26T04:56:40.032Z,27.36
2023-03-26T05:00:39.925Z,25.27
2023-03-26T05:04:39.929Z,30.22
2023-03-26T05:08:38.778Z,28.81
2023-03-26T05:12:39.858Z,30.13
2023-03-26T05:16:40.070Z,29.46
2023-03-26T05:20:40.197Z,27.00
2023-03-26T05:24:40.396Z,29.25
2023-03-26T05:28:40.601Z,28.05
2023-03-26T05:32:40.830Z,30.22
2023-03-26T05:40:40.117Z,28.62
2023-03-26T05:48:40.474Z,28.82
2023-03-26T05:56:40.857Z,30.18
2023-03-26T06:04:41.343Z,30.09
2023-03-26T06:12:41.465Z,29.23
2023-03-26T08:20:43.684Z,28.34
2023-03-26T08:28:43.573Z,29.03
2023-03-26T08:36:43.388Z,39.62
2023-03-26T08:44:43.542Z,48.00
2023-03-26T08:52:43.606Z,56.99
2023-03-26T09:00:43.471Z,68.52
2023-03-26T09:08:54.165Z,76.45
2023-03-26T09:16:43.183Z,79.77
2023-03-26T09:24:42.955Z,81.89
2023-03-26T09:32:42.852Z,88.58
2023-03-26T09:40:42.656Z,89.93
2023-03-26T09:48:42.742Z,86.61
2023-03-26T09:56:42.858Z,90.34
2023-03-26T10:04:42.977Z,90.66
2023-03-26T10:12:43.014Z,89.46
2023-03-26T10:16:44.123Z,93.76
2023-03-26T10:24:43.086Z,87.94
2023-03-26T10:32:43.236Z,89.90
2023-03-26T10:36:44.205Z,91.96
2023-03-26T10:40:44.259Z,86.62
2023-03-26T10:44:44.306Z,87.99
2023-03-26T10:48:44.387Z,93.56
2023-03-26T10:52:44.410Z,89.79
2023-03-26T10:56:44.474Z,91.45
2023-03-26T11:00:44.497Z,92.98
2023-03-26T11:04:44.567Z,90.39
2023-03-26T11:08:44.605Z,88.24
2023-03-26T11:12:44.663Z,88.82
2023-03-26T11:16:44.721Z,89.29
2023-03-26T11:20:45.424Z,89.29
2023-03-26T11:24:44.862Z,89.35
2023-03-26T11:29:03.498Z,89.59
2023-03-26T11:32:44.920Z,90.42
2023-03-26T11:36:44.803Z,87.56
2023-03-26T11:40:44.681Z,87.20
2023-03-26T11:44:44.592Z,87.28
2023-03-26T11:48:44.475Z,88.26
2023-03-26T11:52:45.941Z,87.74
2023-03-26T11:57:04.410Z,86.00
2023-03-26T12:00:44.182Z,88.86
2023-03-26T12:04:44.075Z,87.25
2023-03-26T12:08:43.969Z,88.99
2023-03-26T12:12:43.829Z,87.85
2023-03-26T12:16:43.789Z,89.16
2023-03-26T12:20:43.621Z,91.38
2023-03-26T12:24:43.556Z,89.44
2023-03-26T12:28:43.419Z,88.29
2023-03-26T12:32:46.701Z,88.38
2023-03-26T12:36:43.185Z,90.35
2023-03-26T12:40:43.097Z,91.17
2023-03-26T12:44:57.771Z,87.34
2023-03-26T12:48:42.994Z,90.99
2023-03-26T12:52:42.767Z,92.03
2023-03-26T12:56:42.758Z,91.42
2023-03-26T13:00:42.573Z,92.29
2023-03-26T13:04:51.925Z,91.25
2023-03-26T13:08:42.377Z,90.66
2023-03-26T13:12:42.300Z,91.49
2023-03-26T13:16:42.218Z,90.65
2023-03-26T13:20:42.069Z,91.81
2023-03-26T13:24:41.961Z,90.83
2023-03-26T13:28:41.872Z,87.14
2023-03-26T13:32:41.793Z,87.65
2023-03-26T13:36:41.743Z,88.80
2023-03-26T13:40:41.781Z,87.54
2023-03-26T13:44:41.928Z,89.51
2023-03-26T13:48:42.053Z,88.25
2023-03-26T13:52:42.165Z,87.39
2023-03-26T13:56:43.446Z,84.03
2023-03-26T14:00:42.424Z,84.49
2023-03-26T14:04:42.519Z,82.42
2023-03-26T14:08:42.640Z,82.33
2023-03-26T14:12:42.767Z,84.26
2023-03-26T14:16:42.918Z,82.71
2023-03-26T14:20:43.022Z,84.15
2023-03-26T14:24:43.591Z,81.98
2023-03-26T14:28:43.316Z,83.78
2023-03-26T14:32:43.512Z,81.55
2023-03-26T14:36:43.389Z,81.27
2023-03-26T14:40:43.286Z,80.75
2023-03-26T14:44:48.496Z,79.84
2023-03-26T14:48:43.224Z,82.20
2023-03-26T14:52:43.055Z,80.44
2023-03-26T14:56:43.028Z,82.82
2023-03-26T15:00:42.937Z,79.30
2023-03-26T15:04:42.848Z,79.62
2023-03-26T15:08:43.265Z,76.83
2023-03-26T15:12:42.669Z,77.39
2023-03-26T15:16:42.637Z,77.94
2023-03-26T15:20:42.550Z,77.69
2023-03-26T15:24:42.448Z,74.83
2023-03-26T15:28:42.367Z,73.60
2023-03-26T15:32:42.326Z,75.08
2023-03-26T15:36:42.504Z,77.53
2023-03-26T15:40:42.426Z,75.02
2023-03-26T15:44:53.058Z,74.90
2023-03-26T15:48:42.275Z,74.45
2023-03-26T15:52:42.229Z,73.83
2023-03-26T15:56:42.172Z,73.03
2023-03-26T16:00:42.066Z,71.34
2023-03-26T16:04:51.079Z,71.72
2023-03-26T16:08:41.917Z,73.30
2023-03-26T16:12:41.807Z,73.30
2023-03-26T16:16:41.745Z,75.42
2023-03-26T16:20:41.680Z,73.84
2023-03-26T16:24:41.746Z,74.12
2023-03-26T16:28:41.565Z,74.67
2023-03-26T16:32:41.645Z,75.76
2023-03-26T16:36:41.569Z,74.35
2023-03-26T16:40:41.541Z,74.99
2023-03-26T16:44:41.498Z,74.60
2023-03-26T16:48:41.449Z,76.70
2023-03-26T16:52:41.404Z,78.41
2023-03-26T16:56:41.341Z,76.25
2023-03-26T17:00:41.274Z,76.94
2023-03-26T17:04:41.430Z,77.40
2023-03-26T17:08:41.612Z,76.25
2023-03-26T17:12:41.801Z,78.87
2023-03-26T17:16:41.968Z,76.64
2023-03-26T17:20:42.089Z,74.43
2023-03-26T17:24:42.207Z,75.50
2023-03-26T17:28:42.358Z,77.54
2023-03-26T17:32:42.328Z,75.96
2023-03-26T17:36:42.204Z,74.90
2023-03-26T17:40:42.790Z,77.03
2023-03-26T17:44:42.100Z,76.22
2023-03-26T17:48:41.995Z,73.77
2023-03-26T17:52:41.920Z,74.91
2023-03-26T17:56:42.748Z,76.13
2023-03-26T18:00:41.821Z,73.55
2023-03-26T18:04:41.754Z,75.02
2023-03-26T18:08:41.681Z,74.84
2023-03-26T18:12:41.628Z,75.51
2023-03-26T18:16:41.792Z,75.32
2023-03-26T18:20:41.978Z,73.94
2023-03-26T18:24:41.845Z,72.89
2023-03-26T18:28:41.844Z,74.26
2023-03-26T18:32:41.864Z,75.27
2023-03-26T18:36:41.843Z,73.12
2023-03-26T18:40:41.989Z,72.42
2023-03-26T18:44:42.066Z,73.57
2023-03-26T18:48:42.163Z,74.16
2023-03-26T18:52:42.170Z,71.10
2023-03-26T18:56:42.249Z,72.13
2023-03-26T19:00:42.241Z,68.13
2023-03-26T19:04:42.962Z,70.03
2023-03-26T19:08:42.213Z,70.06
2023-03-26T19:12:42.171Z,71.11
2023-03-26T19:16:42.157Z,68.94
2023-03-26T19:20:42.131Z,67.07
2023-03-26T19:24:42.080Z,67.07
2023-03-26T19:28:42.062Z,69.18
2023-03-26T19:32:42.115Z,68.73
2023-03-26T19:36:42.122Z,67.21
2023-03-26T19:40:42.117Z,68.63
2023-03-26T19:44:42.183Z,68.37
2023-03-26T19:48:45.969Z,65.67
2023-03-26T19:52:42.110Z,66.76
2023-03-26T19:56:42.083Z,67.78
2023-03-26T20:00:41.979Z,66.72
2023-03-26T20:04:41.913Z,66.91
2023-03-26T20:08:43.765Z,66.00
2023-03-26T20:12:41.785Z,65.40
2023-03-26T20:16:44.299Z,68.44
2023-03-26T20:20:41.676Z,68.37
2023-03-26T20:24:41.631Z,65.67
2023-03-26T20:28:47.716Z,65.73
2023-03-26T20:32:42.655Z,66.64
2023-03-26T20:36:41.641Z,67.38
2023-03-26T20:40:41.390Z,67.09
2023-03-26T20:44:41.279Z,64.50
2023-03-26T20:48:41.193Z,65.99
2023-03-26T20:52:41.123Z,64.73
2023-03-26T20:56:41.132Z,64.91
2023-03-26T21:00:41.073Z,64.37
2023-03-26T21:04:40.994Z,64.39
2023-03-26T21:08:40.938Z,62.66
2023-03-26T21:12:40.911Z,63.92
2023-03-26T21:16:40.914Z,63.66
2023-03-26T21:20:40.791Z,62.13
2023-03-26T21:24:41.423Z,64.49
2023-03-26T21:28:42.549Z,63.03
2023-03-26T21:32:40.705Z,61.71
2023-03-26T21:36:40.561Z,61.83
2023-03-26T21:40:44.508Z,62.78
2023-03-26T21:44:40.480Z,64.19
2023-03-26T21:48:40.403Z,63.75
2023-03-26T21:52:40.344Z,60.40
2023-03-26T21:56:40.289Z,62.45
2023-03-26T22:00:43.650Z,60.78
2023-03-26T22:04:40.154Z,61.59
2023-03-26T22:08:40.842Z,62.12
2023-03-26T22:12:40.050Z,59.52
2023-03-26T22:16:40.035Z,59.52
2023-03-26T22:20:39.969Z,61.51
2023-03-26T22:24:39.925Z,58.74
2023-03-26T22:28:39.877Z,58.70
2023-03-26T22:32:39.873Z,61.92
2023-03-26T22:36:40.384Z,59.71
2023-03-26T22:40:39.719Z,58.84
2023-03-26T22:44:39.697Z,59.21
2023-03-26T22:48:39.643Z,59.53
2023-03-26T22:52:39.556Z,58.28
2023-03-26T22:56:39.547Z,58.47
2023-03-26T23:00:39.487Z,56.40
